Time;durP1;ratioP1;P1;durP2;ratioP2;P2;SDS_P1;SDS_P2;PMS_P1;PMS_P2;Temp;Humidity;BMP_temperature;BMP_pressure;BME280_temperature;BME280_humidity;BME280_pressure;Samples;Min_cycle;Max_cycle;Signal;HPM_P1;HPM_P2
2021/08/30 00:02:02;;;;;;;20.35;14.77;;;16.60;99.90;;;;;;5064103;28;20568;-78
2021/08/30 00:04:29;;;;;;;22.27;14.70;;;16.60;99.90;;;;;;5067457;28;20200;-78
2021/08/30 00:06:56;;;;;;;22.70;14.63;;;16.60;99.90;;;;;;5054596;28;20289;-78
2021/08/30 00:09:24;;;;;;;21.80;15.18;;;16.60;99.90;;;;;;5058219;28;20210;-78
2021/08/30 00:11:51;;;;;;;22.27;15.55;;;16.60;99.90;;;;;;5060561;28;20213;-78
2021/08/30 00:14:18;;;;;;;21.70;15.20;;;16.50;99.90;;;;;;5063543;28;20223;-77
2021/08/30 00:16:45;;;;;;;25.38;16.00;;;16.60;99.90;;;;;;5065232;28;20683;-78
2021/08/30 00:19:12;;;;;;;21.58;15.27;;;16.60;99.90;;;;;;5065361;28;20209;-78
2021/08/30 00:21:39;;;;;;;22.60;16.67;;;16.60;99.90;;;;;;5069567;28;20397;-77
2021/08/30 00:24:06;;;;;;;23.17;16.73;;;16.60;99.90;;;;;;5069242;28;20197;-78
2021/08/30 00:26:34;;;;;;;22.70;15.68;;;16.60;99.90;;;;;;5073084;28;20205;-78
2021/08/30 00:29:01;;;;;;;22.00;16.40;;;16.60;99.90;;;;;;5068880;28;20210;-78
2021/08/30 00:31:28;;;;;;;22.15;15.23;;;16.60;99.90;;;;;;5062975;28;20209;-78
2021/08/30 00:33:55;;;;;;;23.38;15.32;;;16.60;99.90;;;;;;5060086;28;20218;-78
2021/08/30 00:36:25;;;;;;;22.25;16.20;;;16.60;99.90;;;;;;5070657;28;20197;-77
2021/08/30 00:38:54;;;;;;;21.88;16.15;;;16.60;99.90;;;;;;5066053;28;20198;-78
2021/08/30 00:41:21;;;;;;;24.20;16.67;;;16.50;99.90;;;;;;5062380;28;20206;-77
2021/08/30 00:43:49;;;;;;;22.73;16.45;;;16.60;99.90;;;;;;5061499;28;20202;-77
2021/08/30 00:46:17;;;;;;;26.70;16.90;;;16.60;99.90;;;;;;5059453;28;20265;-78
2021/08/30 00:48:46;;;;;;;22.42;16.08;;;16.60;99.90;;;;;;5067477;28;20202;-78
2021/08/30 00:51:14;;;;;;;22.63;16.40;;;16.60;99.90;;;;;;5068989;28;20217;-77
2021/08/30 00:53:42;;;;;;;22.92;16.27;;;16.60;99.90;;;;;;5068734;28;20598;-78
2021/08/30 00:56:09;;;;;;;22.52;15.88;;;16.60;99.90;;;;;;5068217;28;20558;-78
2021/08/30 00:58:35;;;;;;;21.33;15.77;;;16.60;99.90;;;;;;5069601;28;20202;-78
2021/08/30 01:01:04;;;;;;;23.08;15.50;;;16.60;99.90;;;;;;5069146;28;20202;-78
2021/08/30 01:03:31;;;;;;;20.58;14.70;;;16.60;99.90;;;;;;5068628;28;20218;-77
2021/08/30 01:06:07;;;;;;;23.23;14.70;;;16.60;99.90;;;;;;5079263;28;20197;-78
2021/08/30 01:08:42;;;;;;;22.80;14.27;;;16.60;99.90;;;;;;5070173;28;20206;-77
2021/08/30 01:11:15;;;;;;;22.27;15.15;;;16.60;99.90;;;;;;5070017;28;20206;-77
2021/08/30 01:13:47;;;;;;;22.67;15.23;;;16.60;99.90;;;;;;5070824;28;20212;-78
2021/08/30 01:16:18;;;;;;;21.02;14.43;;;16.60;99.90;;;;;;5070767;28;20203;-77
2021/08/30 01:18:48;;;;;;;23.00;16.52;;;16.60;99.90;;;;;;5069450;28;20217;-78
2021/08/30 01:21:19;;;;;;;21.25;14.65;;;16.60;99.90;;;;;;5070075;28;20217;-78
2021/08/30 01:23:50;;;;;;;21.90;15.52;;;16.60;99.90;;;;;;5073613;28;20232;-78
2021/08/30 01:26:19;;;;;;;23.83;15.00;;;16.60;99.90;;;;;;5070669;28;20724;-77
2021/08/30 01:29:00;;;;;;;22.20;15.50;;;16.60;99.90;;;;;;5067276;28;20208;-77
2021/08/30 01:31:36;;;;;;;21.73;15.25;;;16.60;99.90;;;;;;5074476;28;20201;-77
2021/08/30 01:34:04;;;;;;;24.38;16.08;;;16.60;99.90;;;;;;5071727;28;20672;-78
2021/08/30 01:36:33;;;;;;;22.52;15.13;;;16.60;99.90;;;;;;5072921;28;20213;-78
2021/08/30 01:39:01;;;;;;;21.33;14.98;;;16.60;99.90;;;;;;5073584;28;20545;-78
2021/08/30 01:41:29;;;;;;;22.67;16.15;;;16.50;99.90;;;;;;5074437;28;20206;-78
2021/08/30 01:43:57;;;;;;;21.08;14.35;;;16.50;99.90;;;;;;5074412;28;20652;-78
2021/08/30 01:46:25;;;;;;;21.77;14.20;;;16.50;99.90;;;;;;5074470;28;20202;-78
2021/08/30 01:48:53;;;;;;;23.67;16.33;;;16.50;99.90;;;;;;5073384;28;20229;-78
2021/08/30 01:51:24;;;;;;;22.63;14.80;;;16.50;99.90;;;;;;5074232;28;20230;-78
2021/08/30 01:53:52;;;;;;;21.70;14.35;;;16.50;99.90;;;;;;5076038;28;20203;-78
2021/08/30 01:56:21;;;;;;;20.17;14.55;;;16.50;99.90;;;;;;5074494;28;20648;-78
2021/08/30 02:01:31;;;;;;;21.15;15.02;;;16.50;99.90;;;;;;5040282;28;20591;-77
2021/08/30 02:03:58;;;;;;;26.05;14.85;;;16.50;99.90;;;;;;5075581;28;20211;-78
2021/08/30 02:06:27;;;;;;;22.63;15.55;;;16.50;99.90;;;;;;5072931;28;20567;-78
2021/08/30 02:08:56;;;;;;;21.88;15.80;;;16.50;99.90;;;;;;5072051;28;20198;-78
2021/08/30 02:11:31;;;;;;;22.23;16.05;;;16.50;99.90;;;;;;5073466;28;20207;-78
2021/08/30 02:13:58;;;;;;;22.13;16.13;;;16.40;99.90;;;;;;5083135;28;20208;-77
2021/08/30 02:16:25;;;;;;;23.60;16.08;;;16.50;99.90;;;;;;5074065;28;20586;-78
2021/08/30 02:18:59;;;;;;;24.90;17.08;;;16.50;99.90;;;;;;5072464;28;20208;-77
2021/08/30 02:21:35;;;;;;;22.48;16.02;;;16.50;99.90;;;;;;5078113;28;20240;-77
2021/08/30 02:24:08;;;;;;;23.08;15.60;;;16.50;99.90;;;;;;5077995;28;20202;-79
2021/08/30 02:26:40;;;;;;;26.38;17.80;;;16.50;99.90;;;;;;5069296;28;20198;-78
2021/08/30 02:29:08;;;;;;;25.30;16.55;;;16.40;99.90;;;;;;5071635;28;20213;-78
2021/08/30 02:31:36;;;;;;;25.33;16.52;;;16.40;99.90;;;;;;5070006;28;20210;-78
2021/08/30 02:34:04;;;;;;;21.50;15.57;;;16.40;99.90;;;;;;5072432;28;20707;-78
2021/08/30 02:36:33;;;;;;;22.50;16.65;;;16.50;99.90;;;;;;5073423;28;20604;-78
2021/08/30 02:39:01;;;;;;;23.92;15.95;;;16.50;99.90;;;;;;5075145;28;20656;-78
2021/08/30 02:41:29;;;;;;;23.83;17.25;;;16.50;99.90;;;;;;5074606;28;20198;-78
2021/08/30 02:43:57;;;;;;;23.23;17.00;;;16.50;99.90;;;;;;5075781;28;20686;-77
2021/08/30 02:46:25;;;;;;;22.85;16.52;;;16.40;99.90;;;;;;5079380;28;20566;-78
2021/08/30 02:48:55;;;;;;;23.50;17.02;;;16.40;99.90;;;;;;5071107;28;20202;-78
2021/08/30 02:51:22;;;;;;;24.17;16.88;;;16.40;99.90;;;;;;5069954;28;20237;-77
2021/08/30 02:53:52;;;;;;;21.20;15.77;;;16.40;99.90;;;;;;5064789;28;20296;-78
2021/08/30 02:56:19;;;;;;;22.73;16.50;;;16.50;99.90;;;;;;5076228;28;20604;-78
2021/08/30 02:58:47;;;;;;;23.23;16.48;;;16.40;99.90;;;;;;5070941;28;20297;-78
2021/08/30 03:01:14;;;;;;;20.80;15.88;;;16.40;99.90;;;;;;5070975;28;20657;-76
2021/08/30 03:03:41;;;;;;;24.23;16.58;;;16.40;99.90;;;;;;5079520;28;20212;-77
2021/08/30 03:06:09;;;;;;;22.38;16.85;;;16.40;99.90;;;;;;5073466;28;20187;-77
2021/08/30 03:08:36;;;;;;;23.35;16.13;;;16.40;99.90;;;;;;5072537;28;20217;-77
2021/08/30 03:11:07;;;;;;;23.23;16.77;;;16.40;99.90;;;;;;5073582;28;20649;-77
2021/08/30 03:13:36;;;;;;;20.77;15.35;;;16.40;99.90;;;;;;5080166;28;20632;-76
2021/08/30 03:16:03;;;;;;;23.23;15.23;;;16.40;99.90;;;;;;5079374;28;20215;-77
2021/08/30 03:18:30;;;;;;;24.17;15.90;;;16.40;99.90;;;;;;5071414;28;20216;-77
2021/08/30 03:20:58;;;;;;;22.60;15.40;;;16.40;99.90;;;;;;5064082;28;20565;-77
2021/08/30 03:23:26;;;;;;;22.23;15.82;;;16.40;99.90;;;;;;5072332;28;20225;-76
2021/08/30 03:25:55;;;;;;;22.35;16.20;;;16.40;99.90;;;;;;5073294;28;20202;-76
2021/08/30 03:28:24;;;;;;;22.90;15.30;;;16.40;99.90;;;;;;5072403;28;20210;-77
2021/08/30 03:30:52;;;;;;;25.75;16.80;;;16.40;99.90;;;;;;5067013;28;20206;-77
2021/08/30 03:33:21;;;;;;;22.73;15.13;;;16.40;99.90;;;;;;5072741;28;20199;-76
2021/08/30 03:35:49;;;;;;;23.63;16.13;;;16.40;99.90;;;;;;5074406;28;20223;-76
2021/08/30 03:38:16;;;;;;;26.20;15.85;;;16.30;99.90;;;;;;5077192;28;20214;-77
2021/08/30 03:40:44;;;;;;;24.30;15.93;;;16.30;99.90;;;;;;5081091;28;20210;-77
2021/08/30 03:43:11;;;;;;;22.58;15.88;;;16.40;99.90;;;;;;5073786;28;20198;-76
2021/08/30 03:45:41;;;;;;;22.27;15.63;;;16.40;99.90;;;;;;5073958;28;20208;-76
2021/08/30 03:48:08;;;;;;;22.38;16.75;;;16.40;99.90;;;;;;5073982;28;20285;-76
2021/08/30 03:50:35;;;;;;;23.13;15.68;;;16.40;99.90;;;;;;5073179;28;20194;-76
2021/08/30 03:53:03;;;;;;;21.20;15.95;;;16.40;99.90;;;;;;5071371;28;20224;-77
2021/08/30 03:55:32;;;;;;;23.30;16.70;;;16.40;99.90;;;;;;5067111;28;20558;-76
2021/08/30 03:58:01;;;;;;;22.73;15.57;;;16.40;99.90;;;;;;5074332;28;20208;-76
2021/08/30 04:00:29;;;;;;;23.63;16.40;;;16.30;99.90;;;;;;5070407;28;20244;-77
2021/08/30 04:03:01;;;;;;;21.33;16.05;;;16.40;99.90;;;;;;5067266;28;20209;-77
2021/08/30 04:05:29;;;;;;;22.90;17.00;;;16.40;99.90;;;;;;5073274;28;20267;-76
2021/08/30 04:07:58;;;;;;;24.50;17.50;;;16.40;99.90;;;;;;5073667;28;20209;-76
2021/08/30 04:10:27;;;;;;;23.67;15.48;;;16.40;99.90;;;;;;5073266;28;20210;-76
2021/08/30 04:12:56;;;;;;;21.52;15.75;;;16.30;99.90;;;;;;5075250;28;20229;-76
2021/08/30 04:15:23;;;;;;;22.88;15.45;;;16.30;99.90;;;;;;5081851;28;20226;-76
2021/08/30 04:17:50;;;;;;;21.33;15.73;;;16.40;99.90;;;;;;5073513;28;20559;-77
2021/08/30 04:20:19;;;;;;;24.40;17.25;;;16.30;99.90;;;;;;5103398;22;20213;-72
2021/08/30 04:22:45;;;;;;;24.08;16.60;;;16.30;99.90;;;;;;5049425;28;20222;-72
2021/08/30 04:25:13;;;;;;;23.63;16.70;;;16.30;99.90;;;;;;5054129;28;20195;-72
2021/08/30 04:27:40;;;;;;;26.13;15.40;;;16.30;99.90;;;;;;5051028;28;20646;-73
2021/08/30 04:30:09;;;;;;;20.02;14.98;;;16.30;99.90;;;;;;5050881;28;20206;-73
2021/08/30 04:32:36;;;;;;;21.05;15.20;;;16.30;99.90;;;;;;5050972;28;20675;-73
2021/08/30 04:35:06;;;;;;;22.13;15.43;;;16.30;99.90;;;;;;5056508;28;20221;-72
2021/08/30 04:37:34;;;;;;;22.17;15.87;;;16.30;99.90;;;;;;5050918;28;20205;-72
2021/08/30 04:40:01;;;;;;;24.02;16.05;;;16.30;99.90;;;;;;5050213;28;20213;-72
2021/08/30 04:42:28;;;;;;;22.77;16.58;;;16.40;99.90;;;;;;5051412;28;20203;-72
2021/08/30 04:44:57;;;;;;;25.33;17.45;;;16.40;99.90;;;;;;5052165;28;20213;-73
2021/08/30 04:47:23;;;;;;;25.10;17.63;;;16.40;99.90;;;;;;5036755;28;20199;-72
2021/08/30 04:49:50;;;;;;;22.25;16.48;;;16.40;99.90;;;;;;5050072;28;20203;-73
2021/08/30 04:52:17;;;;;;;22.63;16.40;;;16.30;99.90;;;;;;5051250;28;20552;-73
2021/08/30 04:54:45;;;;;;;23.15;16.25;;;16.40;99.90;;;;;;5060002;28;20656;-72
2021/08/30 04:57:12;;;;;;;23.27;15.90;;;16.30;99.90;;;;;;5053292;28;20327;-73
2021/08/30 04:59:39;;;;;;;21.67;16.13;;;16.30;99.90;;;;;;5050777;28;20229;-72
2021/08/30 05:02:06;;;;;;;24.20;17.75;;;16.30;99.90;;;;;;5051076;28;20195;-72
2021/08/30 05:04:33;;;;;;;22.05;15.80;;;16.30;99.90;;;;;;5055161;28;20352;-73
2021/08/30 05:07:00;;;;;;;23.30;16.98;;;16.30;99.90;;;;;;5054837;28;20637;-72
2021/08/30 05:09:27;;;;;;;22.58;17.27;;;16.30;99.90;;;;;;5060116;28;20195;-72
2021/08/30 05:11:55;;;;;;;24.58;16.83;;;16.30;99.90;;;;;;5054751;28;20199;-72
2021/08/30 05:14:22;;;;;;;23.58;16.33;;;16.30;99.90;;;;;;5053823;28;20203;-72
2021/08/30 05:16:49;;;;;;;22.83;17.05;;;16.30;99.90;;;;;;5054121;28;20226;-72
2021/08/30 05:19:16;;;;;;;23.42;16.73;;;16.30;99.90;;;;;;5064111;28;20298;-72
2021/08/30 05:21:43;;;;;;;26.88;17.17;;;16.40;99.90;;;;;;5054987;28;20657;-73
2021/08/30 05:24:10;;;;;;;22.90;16.88;;;16.30;99.90;;;;;;5054321;28;20210;-73
2021/08/30 05:26:37;;;;;;;25.17;17.65;;;16.30;99.90;;;;;;5054911;28;20548;-72
2021/08/30 05:29:06;;;;;;;24.35;17.40;;;16.40;99.90;;;;;;5062790;28;20202;-72
2021/08/30 05:31:32;;;;;;;25.40;18.08;;;16.40;99.90;;;;;;5055359;28;20207;-72
2021/08/30 05:33:59;;;;;;;23.10;17.35;;;16.40;99.90;;;;;;5054115;28;20210;-72
2021/08/30 05:36:27;;;;;;;25.85;17.92;;;16.40;99.90;;;;;;5054563;28;20214;-73
2021/08/30 05:38:54;;;;;;;25.08;17.42;;;16.40;99.90;;;;;;5053329;28;20207;-73
2021/08/30 05:41:21;;;;;;;25.60;16.60;;;16.40;99.90;;;;;;5055851;28;20203;-72
2021/08/30 05:43:48;;;;;;;24.30;17.52;;;16.40;99.90;;;;;;5054591;28;20199;-72
2021/08/30 05:46:16;;;;;;;24.75;17.67;;;16.40;99.90;;;;;;5054056;28;20195;-72
2021/08/30 05:48:44;;;;;;;26.80;17.85;;;16.40;99.90;;;;;;5053430;28;20209;-73
2021/08/30 05:51:11;;;;;;;24.08;17.15;;;16.40;99.90;;;;;;5052974;28;20205;-72
2021/08/30 05:53:38;;;;;;;25.20;17.45;;;16.40;99.90;;;;;;5057673;28;20291;-72
2021/08/30 05:56:06;;;;;;;25.08;18.15;;;16.40;99.90;;;;;;5051032;28;20302;-72
2021/08/30 05:58:33;;;;;;;22.45;16.92;;;16.40;99.90;;;;;;5054091;28;20611;-72
2021/08/30 06:01:00;;;;;;;22.67;18.00;;;16.40;99.90;;;;;;5053180;28;20823;-73
2021/08/30 06:03:29;;;;;;;23.38;16.88;;;16.40;99.90;;;;;;5054501;28;20637;-72
2021/08/30 06:05:56;;;;;;;23.13;16.85;;;16.40;99.90;;;;;;5054009;28;20195;-73
2021/08/30 06:08:23;;;;;;;22.50;16.63;;;16.40;99.90;;;;;;5057278;28;20232;-72
2021/08/30 06:10:50;;;;;;;22.50;16.83;;;16.40;99.90;;;;;;5056478;28;20668;-72
2021/08/30 06:13:18;;;;;;;20.65;15.40;;;16.40;99.90;;;;;;5053700;28;20221;-72
2021/08/30 06:15:45;;;;;;;21.40;15.95;;;16.40;99.90;;;;;;5055525;28;20461;-72
2021/08/30 06:18:12;;;;;;;21.38;15.35;;;16.50;99.90;;;;;;5052160;28;20213;-72
2021/08/30 06:20:40;;;;;;;23.30;15.77;;;16.50;99.90;;;;;;5052978;28;20225;-72
2021/08/30 06:23:07;;;;;;;20.95;15.93;;;16.50;99.90;;;;;;5053114;28;20215;-72
2021/08/30 06:25:34;;;;;;;18.75;14.55;;;16.50;99.90;;;;;;5056476;28;20209;-72
2021/08/30 06:28:01;;;;;;;20.38;15.15;;;16.50;99.90;;;;;;5053796;28;20203;-72
2021/08/30 06:30:28;;;;;;;24.58;16.00;;;16.50;99.90;;;;;;5052817;28;20199;-72
2021/08/30 06:32:55;;;;;;;22.92;15.15;;;16.50;99.90;;;;;;5054208;28;20199;-73
2021/08/30 06:35:23;;;;;;;21.88;15.88;;;16.50;99.90;;;;;;5064804;28;20199;-72
2021/08/30 06:37:51;;;;;;;21.88;15.30;;;16.50;99.90;;;;;;5052445;28;20211;-73
2021/08/30 06:40:20;;;;;;;22.20;15.15;;;16.60;99.90;;;;;;5040241;28;20199;-72
2021/08/30 06:42:47;;;;;;;20.10;14.07;;;16.60;99.90;;;;;;5058370;28;20202;-72
2021/08/30 06:45:14;;;;;;;19.38;14.45;;;16.60;99.90;;;;;;5053104;28;20206;-72
2021/08/30 06:47:42;;;;;;;19.80;14.38;;;16.60;99.90;;;;;;5049794;28;20199;-72
2021/08/30 06:50:10;;;;;;;20.27;13.95;;;16.70;99.90;;;;;;5046874;28;20675;-72
2021/08/30 06:52:37;;;;;;;21.30;14.00;;;16.70;99.90;;;;;;5046074;28;20469;-72
2021/08/30 06:55:07;;;;;;;18.13;13.00;;;16.70;99.90;;;;;;5055108;28;20645;-72
2021/08/30 06:57:35;;;;;;;20.05;14.13;;;16.80;99.90;;;;;;5051862;28;20219;-72
2021/08/30 07:00:02;;;;;;;19.17;14.20;;;16.80;99.90;;;;;;5058442;28;20203;-72
2021/08/30 07:02:29;;;;;;;19.42;14.57;;;16.80;99.90;;;;;;5052884;28;20199;-72
2021/08/30 07:04:56;;;;;;;20.45;14.93;;;16.90;99.90;;;;;;5052503;28;20206;-72
2021/08/30 07:07:23;;;;;;;21.58;14.20;;;16.80;99.90;;;;;;5052983;28;20199;-72
2021/08/30 07:09:50;;;;;;;19.75;14.82;;;16.90;99.90;;;;;;5051131;28;20221;-72
2021/08/30 07:12:18;;;;;;;19.88;14.05;;;16.90;99.90;;;;;;5052615;28;20291;-73
2021/08/30 07:14:45;;;;;;;19.85;14.73;;;16.90;99.90;;;;;;5052677;28;20214;-74
2021/08/30 07:17:12;;;;;;;21.48;14.30;;;16.90;99.90;;;;;;5057046;28;20218;-74
2021/08/30 07:19:39;;;;;;;19.83;13.57;;;16.90;99.90;;;;;;5051899;28;20493;-74
2021/08/30 07:22:06;;;;;;;21.08;15.10;;;17.00;99.90;;;;;;5050826;28;20588;-74
2021/08/30 07:24:33;;;;;;;19.85;14.38;;;16.90;99.90;;;;;;5052174;28;20198;-74
2021/08/30 07:27:02;;;;;;;22.77;14.27;;;16.90;99.90;;;;;;5051377;28;20609;-74
2021/08/30 07:29:30;;;;;;;19.00;12.57;;;17.00;99.90;;;;;;5052076;28;20705;-74
2021/08/30 07:31:57;;;;;;;19.73;13.18;;;17.00;99.90;;;;;;5051653;28;20567;-74
2021/08/30 07:34:25;;;;;;;19.15;13.50;;;17.10;99.90;;;;;;5051197;28;20202;-74
2021/08/30 07:36:52;;;;;;;18.27;13.13;;;17.10;99.90;;;;;;5051509;28;20644;-74
2021/08/30 07:39:19;;;;;;;17.23;12.23;;;17.10;99.90;;;;;;5061319;28;20256;-74
2021/08/30 07:41:46;;;;;;;20.27;12.90;;;17.10;99.90;;;;;;5051815;28;20198;-74
2021/08/30 07:44:13;;;;;;;19.63;13.77;;;17.20;99.90;;;;;;5050791;28;20211;-74
2021/08/30 07:46:42;;;;;;;19.27;12.48;;;17.30;99.90;;;;;;5051622;28;20207;-74
2021/08/30 07:49:10;;;;;;;17.10;13.02;;;17.20;99.90;;;;;;5056846;28;20206;-74
2021/08/30 07:51:38;;;;;;;19.30;12.80;;;17.20;99.90;;;;;;5051405;28;20257;-74
2021/08/30 07:54:05;;;;;;;17.23;11.90;;;17.20;99.90;;;;;;5054251;28;20289;-74
2021/08/30 07:56:32;;;;;;;18.90;13.43;;;17.20;99.90;;;;;;5054094;28;20219;-74
2021/08/30 07:58:59;;;;;;;16.40;12.52;;;17.30;99.90;;;;;;5051356;28;20306;-74
2021/08/30 08:01:26;;;;;;;15.73;11.23;;;17.30;99.90;;;;;;5051119;28;20210;-74
2021/08/30 08:03:54;;;;;;;17.95;12.05;;;17.30;99.90;;;;;;5050152;28;20203;-74
2021/08/30 08:06:21;;;;;;;15.77;11.35;;;17.30;99.90;;;;;;5051105;28;20278;-74
2021/08/30 08:08:48;;;;;;;16.70;11.63;;;17.30;99.90;;;;;;5050858;28;20207;-74
2021/08/30 08:11:15;;;;;;;15.90;10.65;;;17.30;99.90;;;;;;5050874;28;20195;-74
2021/08/30 08:13:42;;;;;;;19.30;13.02;;;17.30;99.90;;;;;;5050439;28;20229;-74
2021/08/30 08:16:09;;;;;;;17.58;11.82;;;17.30;99.90;;;;;;5050361;28;20584;-71
2021/08/30 08:18:36;;;;;;;16.05;11.50;;;17.40;99.90;;;;;;5049926;28;20214;-72
2021/08/30 08:21:07;;;;;;;17.40;12.23;;;17.40;99.90;;;;;;5051777;28;20214;-72
2021/08/30 08:23:34;;;;;;;16.85;11.77;;;17.40;99.90;;;;;;5044950;28;20204;-73
2021/08/30 08:26:01;;;;;;;15.35;11.30;;;17.60;99.90;;;;;;5047633;28;20217;-72
2021/08/30 08:28:28;;;;;;;17.67;12.55;;;17.60;99.90;;;;;;5048635;28;20655;-72
2021/08/30 08:30:55;;;;;;;15.10;11.35;;;17.80;99.90;;;;;;5050309;28;20253;-72
2021/08/30 08:33:22;;;;;;;17.77;12.07;;;17.80;99.90;;;;;;5049934;28;20569;-72
2021/08/30 08:35:50;;;;;;;17.50;12.27;;;17.90;99.90;;;;;;5038860;28;20218;-73
2021/08/30 08:38:18;;;;;;;16.85;11.80;;;17.90;99.90;;;;;;5042772;28;20214;-73
2021/08/30 08:40:45;;;;;;;18.60;11.95;;;17.90;99.90;;;;;;5045437;28;20207;-72
2021/08/30 08:43:13;;;;;;;17.08;12.05;;;17.70;99.90;;;;;;5038323;28;20199;-73
2021/08/30 08:45:41;;;;;;;15.20;11.57;;;17.70;99.90;;;;;;5046451;28;20210;-73
2021/08/30 08:48:08;;;;;;;15.73;11.75;;;17.60;99.90;;;;;;5047407;28;20676;-72
2021/08/30 08:50:36;;;;;;;16.80;11.77;;;17.60;99.90;;;;;;5046246;28;20581;-72
2021/08/30 08:53:05;;;;;;;14.55;11.20;;;17.50;99.90;;;;;;5053689;28;20217;-73
2021/08/30 08:55:34;;;;;;;17.40;11.43;;;17.50;99.90;;;;;;5047419;28;20241;-73
2021/08/30 08:58:04;;;;;;;17.27;11.40;;;17.50;99.90;;;;;;5047900;28;20254;-73
2021/08/30 09:00:31;;;;;;;16.55;10.55;;;17.50;99.90;;;;;;5052391;28;20665;-72
2021/08/30 09:02:58;;;;;;;14.90;10.63;;;17.50;99.90;;;;;;5047071;28;20671;-72
2021/08/30 09:05:26;;;;;;;13.95;9.77;;;17.60;99.90;;;;;;5047399;28;20396;-72
2021/08/30 09:07:56;;;;;;;15.68;10.20;;;17.70;99.90;;;;;;5063315;28;20652;-73
2021/08/30 09:10:26;;;;;;;11.88;8.93;;;17.80;99.90;;;;;;5045305;28;20310;-72
2021/08/30 09:13:06;;;;;;;13.00;8.88;;;18.40;99.90;;;;;;5048351;28;20211;-72
2021/08/30 09:15:39;;;;;;;12.50;8.05;;;19.00;99.90;;;;;;5047366;28;20314;-72
2021/08/30 09:18:09;;;;;;;11.23;8.13;;;18.80;99.90;;;;;;5044880;28;20623;-72
2021/08/30 09:20:36;;;;;;;12.98;7.80;;;18.20;99.90;;;;;;5045373;28;20209;-72
2021/08/30 09:23:11;;;;;;;9.57;6.97;;;18.10;99.90;;;;;;5050487;28;20207;-73
2021/08/30 09:25:38;;;;;;;9.70;6.80;;;18.00;99.90;;;;;;5045813;28;20213;-73
2021/08/30 09:28:07;;;;;;;10.23;7.35;;;18.00;99.90;;;;;;5047308;28;20666;-72
2021/08/30 09:30:34;;;;;;;10.00;7.20;;;18.00;99.90;;;;;;5044427;28;20218;-73
2021/08/30 09:33:01;;;;;;;10.15;6.97;;;18.00;99.90;;;;;;5050505;28;20632;-72
2021/08/30 09:35:28;;;;;;;8.73;6.60;;;17.90;99.90;;;;;;5050573;28;20211;-72
2021/08/30 09:37:55;;;;;;;11.52;7.63;;;17.90;99.90;;;;;;5047349;28;20223;-73
2021/08/30 09:40:27;;;;;;;9.40;6.53;;;18.00;99.90;;;;;;5050737;28;20207;-72
2021/08/30 09:42:57;;;;;;;8.82;6.90;;;18.10;99.90;;;;;;5034554;28;20617;-73
2021/08/30 09:45:27;;;;;;;9.05;6.32;;;18.40;99.90;;;;;;5047221;28;20256;-73
2021/08/30 09:47:56;;;;;;;9.70;5.85;;;18.80;99.90;;;;;;5033558;28;20645;-73
2021/08/30 09:50:34;;;;;;;9.10;6.28;;;19.00;99.90;;;;;;5047271;28;20574;-73
2021/08/30 09:53:04;;;;;;;10.77;6.40;;;19.00;99.90;;;;;;5041913;28;20590;-72
2021/08/30 09:55:32;;;;;;;7.80;5.53;;;18.80;99.90;;;;;;5059816;28;20211;-73
2021/08/30 09:58:00;;;;;;;8.70;6.53;;;18.60;99.90;;;;;;5050579;28;20597;-73
2021/08/30 10:00:29;;;;;;;9.82;6.57;;;18.40;99.90;;;;;;5055388;28;20222;-73
2021/08/30 10:02:59;;;;;;;8.30;6.30;;;18.20;99.90;;;;;;5048508;28;20807;-73
2021/08/30 10:05:28;;;;;;;8.25;6.72;;;18.10;99.90;;;;;;5050605;28;20217;-73
2021/08/30 10:07:55;;;;;;;9.02;6.70;;;18.00;99.90;;;;;;5049808;28;20229;-73
2021/08/30 10:10:24;;;;;;;8.60;6.68;;;17.90;99.90;;;;;;5049178;28;20207;-72
2021/08/30 10:12:52;;;;;;;9.30;7.10;;;17.90;99.90;;;;;;5050180;28;20211;-73
2021/08/30 10:15:22;;;;;;;11.38;7.68;;;17.80;99.90;;;;;;5050347;28;20225;-73
2021/08/30 10:17:50;;;;;;;10.27;6.85;;;17.80;99.90;;;;;;5049455;28;20268;-73
2021/08/30 10:20:22;;;;;;;10.23;6.93;;;17.80;99.90;;;;;;5058682;28;20199;-73
2021/08/30 10:23:00;;;;;;;12.20;7.43;;;17.80;99.90;;;;;;5049212;28;20227;-73
2021/08/30 10:25:27;;;;;;;10.93;6.75;;;17.80;99.90;;;;;;5051438;28;20206;-73
2021/08/30 10:27:57;;;;;;;11.82;7.47;;;17.90;99.90;;;;;;5050469;28;20210;-73
2021/08/30 10:30:24;;;;;;;10.55;6.85;;;17.90;99.90;;;;;;5048974;28;20257;-73
2021/08/30 10:32:57;;;;;;;10.82;7.32;;;17.90;99.90;;;;;;5048851;28;20207;-73
2021/08/30 10:35:26;;;;;;;9.25;6.90;;;17.90;99.90;;;;;;5049308;28;20229;-72
2021/08/30 10:37:57;;;;;;;9.52;7.10;;;17.90;99.90;;;;;;5049133;28;20214;-73
2021/08/30 10:40:26;;;;;;;8.98;7.15;;;17.90;99.90;;;;;;5048935;28;20264;-72
2021/08/30 10:43:05;;;;;;;10.90;7.47;;;18.00;99.90;;;;;;5048872;28;20203;-72
2021/08/30 10:45:41;;;;;;;11.23;6.88;;;18.10;99.90;;;;;;5036089;28;20208;-72
2021/08/30 10:48:12;;;;;;;8.88;7.30;;;18.10;99.90;;;;;;5047896;28;20652;-72
2021/08/30 10:50:42;;;;;;;11.75;7.60;;;18.20;99.90;;;;;;5042475;28;20674;-72
2021/08/30 10:53:16;;;;;;;9.35;6.40;;;18.20;99.90;;;;;;5044800;28;20217;-73
2021/08/30 10:55:46;;;;;;;10.07;6.40;;;18.30;99.90;;;;;;5045446;28;20322;-72
2021/08/30 10:58:16;;;;;;;8.93;6.75;;;18.20;99.90;;;;;;5049573;28;20234;-72
2021/08/30 11:00:44;;;;;;;10.85;7.30;;;18.30;99.90;;;;;;5038909;28;20213;-72
2021/08/30 11:03:13;;;;;;;8.30;6.18;;;18.30;99.90;;;;;;5039612;28;20488;-72
2021/08/30 11:05:44;;;;;;;7.35;6.13;;;18.30;99.90;;;;;;5034311;28;20211;-72
2021/08/30 11:08:11;;;;;;;9.05;6.45;;;18.30;99.90;;;;;;5032448;28;20212;-72
2021/08/30 11:10:38;;;;;;;11.77;6.97;;;18.20;99.90;;;;;;5037184;28;20214;-72
2021/08/30 11:13:05;;;;;;;7.30;6.20;;;18.30;99.90;;;;;;5044839;28;20610;-72
2021/08/30 11:15:33;;;;;;;11.02;6.43;;;18.40;99.90;;;;;;5043335;28;20661;-72
2021/08/30 11:18:03;;;;;;;10.38;6.90;;;18.40;99.90;;;;;;5045003;28;20700;-72
2021/08/30 11:20:32;;;;;;;11.27;6.97;;;18.40;99.90;;;;;;5044992;28;20606;-72
2021/08/30 11:22:59;;;;;;;10.95;7.55;;;18.40;99.90;;;;;;5046630;28;20206;-72
2021/08/30 11:25:35;;;;;;;8.57;6.55;;;18.20;99.90;;;;;;5049198;28;20229;-72
2021/08/30 11:28:16;;;;;;;9.82;7.15;;;18.20;99.90;;;;;;5044684;28;20621;-72
2021/08/30 11:30:43;;;;;;;10.32;7.63;;;18.10;99.90;;;;;;5045687;28;20203;-72
2021/08/30 11:33:22;;;;;;;8.65;7.28;;;18.10;99.90;;;;;;5043755;28;20248;-72
2021/08/30 11:35:50;;;;;;;11.27;7.53;;;18.20;99.90;;;;;;5041673;28;20207;-72
2021/08/30 11:38:18;;;;;;;11.68;7.65;;;18.20;99.90;;;;;;5051724;28;20490;-72
2021/08/30 11:40:45;;;;;;;10.77;7.50;;;18.20;99.90;;;;;;5044316;28;20788;-72
2021/08/30 11:43:16;;;;;;;9.18;6.50;;;18.30;99.90;;;;;;5046546;28;20233;-72
2021/08/30 11:45:43;;;;;;;9.05;7.30;;;18.50;99.90;;;;;;5049716;28;20725;-72
2021/08/30 11:48:15;;;;;;;9.50;7.53;;;18.50;99.90;;;;;;5046808;28;20194;-72
2021/08/30 11:50:43;;;;;;;11.07;8.05;;;18.60;99.90;;;;;;5047075;28;20211;-72
2021/08/30 11:53:13;;;;;;;11.43;8.43;;;18.70;99.90;;;;;;5048008;28;20488;-72
2021/08/30 11:55:40;;;;;;;10.68;7.47;;;18.70;99.90;;;;;;5046846;28;20217;-72
2021/08/30 11:58:09;;;;;;;12.60;7.75;;;18.80;99.90;;;;;;5048312;28;20596;-72
2021/08/30 12:00:36;;;;;;;12.68;7.80;;;18.70;99.90;;;;;;5048773;28;20222;-72
2021/08/30 12:03:14;;;;;;;11.95;8.10;;;18.80;99.90;;;;;;5043914;28;20419;-72
2021/08/30 12:05:44;;;;;;;11.15;7.82;;;18.80;99.90;;;;;;5036898;28;20207;-72
2021/08/30 12:08:12;;;;;;;10.50;7.35;;;18.80;99.90;;;;;;5043020;28;20206;-72
2021/08/30 12:10:39;;;;;;;11.52;7.88;;;18.80;99.90;;;;;;5043950;28;20207;-72
2021/08/30 12:13:31;;;;;;;10.80;7.82;;;18.90;99.90;;;;;;5045627;28;20210;-72
2021/08/30 12:15:59;;;;;;;11.05;8.27;;;18.80;99.90;;;;;;5042572;28;20292;-72
2021/08/30 12:18:26;;;;;;;13.45;7.93;;;19.00;99.90;;;;;;5042138;28;20219;-72
2021/08/30 12:20:59;;;;;;;11.13;7.53;;;18.90;99.90;;;;;;5044463;28;20222;-72
2021/08/30 12:23:27;;;;;;;10.85;7.13;;;18.80;99.90;;;;;;5043872;28;20615;-72
2021/08/30 12:25:55;;;;;;;9.13;7.30;;;18.80;99.90;;;;;;5043633;28;20496;-72
2021/08/30 12:28:23;;;;;;;11.15;7.65;;;19.00;99.90;;;;;;5044479;28;20249;-72
2021/08/30 12:30:52;;;;;;;10.38;7.40;;;19.00;99.90;;;;;;5044367;28;20256;-72
2021/08/30 12:33:21;;;;;;;9.20;6.72;;;19.00;99.90;;;;;;5047157;28;21066;-72
2021/08/30 12:35:50;;;;;;;10.05;7.18;;;19.20;99.90;;;;;;5046253;28;20207;-73
2021/08/30 12:38:19;;;;;;;10.15;7.43;;;19.40;99.90;;;;;;5029751;28;20218;-73
2021/08/30 12:40:49;;;;;;;8.30;7.20;;;19.50;99.90;;;;;;5044135;28;20213;-73